Latest Coastal Weather Observations for Laverton

IDV60701

Issued at 4:32 am EDT Sunday 26 March 2017 (issued every 10 minutes, with the page automatically refreshed every 10 minutes)

About coastal observations | Map of coastal stations | Coastal observations for VIC | Marine services | Other Formats
Station Details ID: 087031 Name: LAVERTON RAAF Lat: -37.86 Lon: 144.76 Height: 20.1 m
Data from the previous 72 hours. | See also: Recent months at Laverton
Date/Time
EDT
Temp
°C
Wind Pressure Rain since
9am
mm
Weather Cloud Vis
km
Sea
Height
m
Swell
Dir  Spd
kts
Gust
kts
hPa Trend Height
m
Period
s
Dir
26/04:30am 18.6 S 1 4 1013.8 - 0.0 - Cloudy 10 - - - -
26/04:00am 18.5 S 2 3 1014.1 - 0.0 - Cloudy 10 - - - -
26/03:30am 18.2 S 4 5 1014.1 - 0.0 - Partly cloudy 10 - - - -
26/03:00am 18.5 SSW 5 7 1014.2 - 0.0 - Partly cloudy 10 - - - -
26/02:30am 19.0 SSW 7 10 1014.3 - 0.0 - Partly cloudy 10 - - - -
26/02:00am 18.9 SSW 4 6 1014.5 - 0.0 - Cloudy 10 - - - -
26/01:30am 18.8 SW 4 5 1014.6 - 0.0 - Cloudy 10 - - - -
26/01:00am 18.4 CALM 0 0 1014.6 - 0.0 - Partly cloudy 10 - - - -
26/12:30am 18.8 WSW 4 5 1014.7 - 0.0 - Partly cloudy 10 - - - -
26/12:00am 19.2 SW 4 5 1014.7 - 0.0 - Mostly cloudy 10 - - - -
 
Date/Time
EDT
Temp
°C
Wind Pressure Rain since
9am
mm
Weather Cloud Vis
km
Sea
Height
m
Swell
Dir  Spd
kts
Gust
kts
hPa Trend Height
m
Period
s
Dir
25/11:30pm 19.2 SSW 6 7 1014.5 - 0.0 - Partly cloudy 10 - - - -
25/11:00pm 19.5 SSW 7 11 1014.7 - 0.0 - Partly cloudy 10 - - - -
25/10:30pm 19.9 S 7 9 1014.4 - 0.0 - Partly cloudy 10 - - - -
25/10:00pm 20.1 S 7 10 1014.2 - 0.0 - Partly cloudy 10 - - - -
25/09:30pm 20.8 S 10 14 1013.6 - 0.0 - - 10 - - - -
25/09:00pm 22.0 S 9 13 1013.0 - 0.0 - - 10 - - - -
25/08:30pm 22.8 S 10 15 1012.4 - 0.0 - Partly cloudy 10 - - - -
25/08:00pm 22.8 S 9 15 1011.7 - 0.0 - Partly cloudy 10 - - - -
25/07:30pm 23.3 SE 8 14 1011.3 - 0.0 - Partly cloudy 10 - - - -
25/07:00pm 24.8 SSW 10 15 1010.8 - 0.0 - Partly cloudy 10 - - - -
25/06:30pm 25.7 NNW 7 10 1010.2 - 0.0 - Partly cloudy 10 - - - -
25/06:00pm 26.2 NW 9 12 1010.2 - 0.0 - Cloudy 10 - - - -
25/05:30pm 27.5 ENE 5 7 1009.8 - 0.0 - Partly cloudy 10 - - - -
25/05:00pm 27.8 ESE 6 10 1009.7 - 0.0 - Partly cloudy 10 - - - -
25/04:30pm 28.6 ESE 6 11 1009.6 - 0.0 - Partly cloudy 10 - - - -
25/04:00pm 29.2 ESE 7 9 1009.7 - 0.0 - - 10 - - - -
25/03:30pm 29.2 SE 9 13 1009.7 - 0.0 - Partly cloudy 10 - - - -
25/03:00pm 28.4 SSE 9 12 1010.1 - 0.0 - Cloudy 10 - - - -
25/02:30pm 30.2 SSW 7 13 1010.1 - 0.0 - Partly cloudy 10 - - - -
25/02:00pm 29.6 W 3 7 1010.5 - 0.0 - Partly cloudy 10 - - - -
25/01:30pm 28.9 W 7 12 1010.8 - 0.0 - Partly cloudy 10 - - - -
25/01:00pm 29.7 NW 12 18 1011.0 - 0.0 - Partly cloudy 10 - - - -
25/12:30pm 28.4 NNW 11 17 1011.4 - 0.0 - Partly cloudy 10 - - - -
25/12:00pm 28.9 N 10 16 1011.9 - 0.0 - Mostly cloudy 10 - - - -
25/11:30am 26.5 N 9 13 1012.4 - 0.0 - Partly cloudy 10 - - - -
25/11:00am 25.9 NNE 9 14 1012.5 - 0.0 - Partly cloudy 10 - - - -
25/10:30am 23.9 N 11 16 1012.5 - 0.0 - Partly cloudy 10 - - - -
25/10:00am 22.6 N 9 14 1012.7 - 0.0 - Cloudy 10 - - - -
25/09:30am 21.9 N 9 15 1012.5 - 0.0 - Cloudy 10 - - - -
25/09:00am 21.4 N 9 14 1012.3 - 0.0 - Mostly cloudy 10 - - - -
25/08:30am 21.1 N 10 17 1012.1 - 0.0 - Partly cloudy 10 - - - -
25/08:00am 21.1 N 8 13 1012.2 - 0.0 - Cloudy 10 - - - -
25/07:30am 21.2 N 11 16 1011.9 - 0.0 - Cloudy 10 - - - -
25/07:00am 21.2 NNE 10 17 1011.6 - 0.0 - Cloudy 10 - - - -
25/06:30am 19.9 NNE 6 9 1011.8 - 0.0 - Cloudy 10 - - - -
25/06:00am 19.2 NNE 6 8 1011.8 - 0.0 - Mostly cloudy 10 - - - -
25/05:30am 18.5 NNE 4 5 1011.9 - 0.0 - Cloudy 10 - - - -
25/05:00am 18.3 NNE 5 6 1011.7 - 0.0 - Cloudy 10 - - - -
25/04:30am 18.1 NNE 5 6 1011.9 - 0.0 - Partly cloudy 10 - - - -
25/04:00am 17.9 NNE 6 9 1011.7 - 0.0 - Partly cloudy 10 - - - -
25/03:30am 17.9 NNE 7 10 1012.0 - 0.0 - Cloudy 10 - - - -
25/03:00am 17.3 NNE 5 6 1013.2 - 0.0 - Cloudy 10 - - - -
25/02:30am 17.2 N 3 5 1013.9 - 0.0 - - 10 - - - -
25/02:00am 17.5 CALM 0 0 1014.3 - 0.0 - - 10 - - - -
25/01:30am 17.7 W 4 6 1014.3 - 0.0 - - 10 - - - -
25/01:00am 17.5 WSW 5 7 1014.7 - 0.0 - - 10 - - - -
25/12:30am 17.0 NW 4 5 1014.5 - 0.0 - - 10 - - - -
25/12:00am 16.9 NNW 4 6 1014.3 - 0.0 - Mostly cloudy 10 - - - -
 
Date/Time
EDT
Temp
°C
Wind Pressure Rain since
9am
mm
Weather Cloud Vis
km
Sea
Height
m
Swell
Dir  Spd
kts
Gust
kts
hPa Trend Height
m
Period
s
Dir
24/11:30pm 17.0 NNW 6 7 1014.8 - 0.0 - - 10 - - - -
24/11:00pm 17.2 NE 4 5 1015.0 - 0.0 - - 10 - - - -
24/10:30pm 18.6 E 3 4 1015.3 - 0.0 - - 10 - - - -
24/10:00pm 19.1 ESE 4 5 1015.3 - 0.0 - - 10 - - - -
24/09:30pm 19.7 SE 5 7 1015.4 - 0.0 - - 10 - - - -
24/09:00pm 20.2 SE 6 9 1015.3 - 0.0 - Mostly clear 10 - - - -
24/08:30pm 20.6 SE 6 9 1015.3 - 0.0 - - 10 - - - -
24/08:00pm 20.9 SE 7 11 1014.9 - 0.0 - - 10 - - - -
24/07:30pm 21.2 SSE 5 8 1015.4 - 0.0 - - 10 - - - -
24/07:00pm 21.5 SSE 6 8 1015.2 - 0.0 - - 10 - - - -
24/06:30pm 22.0 S 6 8 1015.4 - 0.0 - - 10 - - - -
24/06:00pm 22.0 SSE 7 9 1014.9 - 0.0 - Mostly clear 10 - - - -
24/05:30pm 22.9 SSE 7 9 1015.0 - 0.0 - - 10 - - - -
24/05:00pm 23.0 SSE 7 10 1015.1 - 0.0 - - 10 - - - -
24/04:30pm 23.2 SE 8 10 1015.3 - 0.0 - - 10 - - - -
24/04:00pm 23.1 ESE 6 8 1015.3 - 0.0 - - 10 - - - -
24/03:30pm 23.3 ESE 7 9 1015.6 - 0.0 - - 10 - - - -
24/03:00pm 22.6 SE 6 9 1016.2 - 0.0 - Mostly clear 10 - - - -
24/02:30pm 22.3 SE 6 8 1016.9 - 0.0 - - 10 - - - -
24/02:00pm 21.5 SE 5 7 1017.4 - 0.0 - - 10 - - - -
24/01:30pm 21.5 ESE 6 10 1017.9 - 0.0 - - 10 - - - -
24/01:00pm 21.3 SE 6 9 1018.6 - 0.0 - - 10 - - - -
24/12:30pm 20.3 ESE 7 10 1018.8 - 0.0 - - 10 - - - -
24/12:00pm 19.9 SE 5 7 1019.6 - 0.0 - - 10 - - - -
24/11:30am 20.1 ENE 5 7 1019.6 - 0.0 - - 10 - - - -
24/11:00am 19.5 NE 4 7 1019.7 - 0.0 - - 10 - - - -
24/10:30am 18.6 E 3 5 1019.7 - 0.0 - - 10 - - - -
24/10:00am 17.3 NW 3 4 1019.9 - 0.0 - - 10 - - - -
24/09:30am 15.6 CALM 0 3 1019.9 - 0.0 - - 10 - - - -
24/09:00am 14.0 NW 3 5 1019.7 - 0.0 - - 10 - - - -
24/08:30am 12.6 NW 5 6 1019.5 - 0.0 - - 10 - - - -
24/08:00am 11.9 NW 6 7 1019.4 - 0.0 - - 10 - - - -
24/07:30am 11.5 NNW 5 7 1019.0 - 0.0 - - 10 - - - -
24/07:00am 11.5 NW 5 6 1018.6 - 0.0 - - 10 - - - -
24/06:30am 11.6 NW 6 7 1018.6 - 0.0 - - 10 - - - -
24/06:00am 12.2 WNW 2 3 1018.5 - 0.0 - - 10 - - - -
24/05:30am 12.3 NW 6 8 1018.7 - 0.0 - - 10 - - - -
24/05:00am 14.5 E 3 4 1018.8 - 0.0 - - 10 - - - -
24/04:30am 14.9 E 5 6 1018.6 - 0.0 - - 10 - - - -
24/04:00am 15.5 E 6 8 1019.0 - 0.0 - - 10 - - - -
24/03:30am 15.8 E 7 10 1019.1 - 0.0 - - 10 - - - -
24/03:00am 15.9 ESE 7 9 1019.7 - 0.0 - - 10 - - - -
24/02:30am 16.1 E 5 8 1020.0 - 0.0 - - 10 - - - -
24/02:00am 16.3 E 7 9 1019.8 - 0.0 - - 10 - - - -
24/01:30am 16.5 E 7 11 1020.1 - 0.0 - - 10 - - - -
24/01:00am 16.4 E 6 10 1020.2 - 0.0 - - 10 - - - -
24/12:30am 16.7 ESE 8 12 1020.2 - 0.0 - - 10 - - - -
24/12:00am 16.9 ESE 10 14 1020.3 - 0.0 - - 10 - - - -
 
Date/Time
EDT
Temp
°C
Wind Pressure Rain since
9am
mm
Weather Cloud Vis
km
Sea
Height
m
Swell
Dir  Spd
kts
Gust
kts
hPa Trend Height
m
Period
s
Dir
23/11:30pm 17.1 ESE 10 16 1020.6 - 0.0 - - 10 - - - -
23/11:00pm 17.4 ESE 11 16 1020.3 - 0.0 - - 10 - - - -
23/10:30pm 17.8 ESE 11 19 1020.9 - 0.0 - - 10 - - - -
23/10:00pm 18.4 ESE 12 22 1020.8 - 0.0 - - 10 - - - -
23/09:30pm 18.6 ESE 13 19 1020.2 - 0.0 - - 10 - - - -
23/09:00pm 19.0 ESE 13 22 1019.9 - 0.0 - - 10 - - - -
23/08:30pm 19.5 SE 11 17 1019.5 - 0.0 - - 10 - - - -
23/08:00pm 20.0 SE 12 18 1019.0 - 0.0 - - 10 - - - -
23/07:30pm 20.6 SE 14 22 1018.5 - 0.0 - - 10 - - - -
23/07:00pm 21.2 SE 14 23 1018.5 - 0.0 - - 10 - - - -
23/06:30pm 22.1 SE 13 21 1018.5 - 0.0 - - 10 - - - -
23/06:00pm 22.6 SE 13 21 1018.4 - 0.0 - - 10 - - - -
23/05:30pm 22.8 SSE 13 19 1018.5 - 0.0 - - 10 - - - -
23/05:00pm 23.2 SE 14 21 1018.4 - 0.0 - - 10 - - - -
23/04:30pm 23.1 SSE 15 21 1018.4 - 0.0 - - 10 - - - -
23/04:00pm 23.2 SE 16 21 1018.7 - 0.0 - - 10 - - - -
23/03:30pm 23.7 SSE 13 18 1018.9 - 0.0 - Partly cloudy 10 - - - -
23/03:00pm 23.4 SE 15 22 1018.7 - 0.0 - - 10 - - - -
23/02:30pm 22.6 SSE 15 22 1019.2 - 0.0 - Partly cloudy 10 - - - -
23/02:00pm 22.2 SE 14 21 1019.4 - 0.0 - Partly cloudy 10 - - - -
23/01:30pm 21.9 SE 15 21 1019.8 - 0.0 - Partly cloudy 10 - - - -
23/01:00pm 21.7 SE 16 23 1020.0 - 0.0 - Cloudy 10 - - - -
23/12:30pm 21.1 SE 16 22 1020.4 - 0.0 - Cloudy 10 - - - -
23/12:00pm 20.9 ESE 14 22 1020.5 - 0.0 - Cloudy 10 - - - -
23/11:30am 20.4 SE 15 21 1020.8 - 0.0 - Partly cloudy 10 - - - -
23/11:00am 20.1 ESE 14 19 1020.8 - 0.0 - Partly cloudy 10 - - - -
23/10:30am 18.5 SE 14 21 1021.0 - 0.0 - Cloudy 10 - - - -
23/10:00am 18.0 ESE 13 24 1021.0 - 0.0 - Cloudy 10 - - - -
23/09:30am 17.8 ESE 15 23 1020.8 - 0.0 - Cloudy 10 - - - -
23/09:00am 17.5 ESE 15 23 1020.5 - 0.4 - Cloudy 10 - - - -
23/08:30am 17.4 ESE 16 27 1020.4 - 0.4 - Partly cloudy 10 - - - -
23/08:00am 17.1 ESE 15 23 1020.3 - 0.4 - Partly cloudy 10 - - - -
23/07:32am 17.1 ESE 15 25 1020.0 - 0.4 - Cloudy 10 - - - -
23/07:30am 17.1 ESE 16 25 1019.9 - 0.4 - Cloudy 10 - - - -
23/07:11am 17.2 ESE 15 25 1019.8 - 0.4 - Cloudy 10 - - - -
23/07:00am 17.3 ESE 14 21 1019.7 - 0.4 - Cloudy 10 - - - -
23/06:31am 17.0 ESE 16 26 1019.6 - 0.4 - Cloudy 10 - - - -
23/06:30am 17.0 ESE 15 24 1019.6 - 0.4 - Cloudy 10 - - - -
23/06:00am 17.1 ESE 13 18 1019.6 - 0.4 - Cloudy 10 - - - -
23/05:30am 17.2 ESE 15 23 1019.4 - 0.4 - Cloudy 10 - - - -
23/05:00am 17.0 ESE 13 23 1019.4 - 0.4 - Partly cloudy 10 - - - -

Other Formats:

Comma delimited format used in spreadsheet applications
http://www.bom.gov.au/fwo/IDV60701/IDV60701.94865.axf

JavaScript Object Notation format (JSON) in row-major order
http://www.bom.gov.au/fwo/IDV60701/IDV60701.94865.json